Time;durP1;ratioP1;P1;durP2;ratioP2;P2;SDS_P1;SDS_P2;PMS_P1;PMS_P2;Temp;Humidity;BMP_temperature;BMP_pressure;BME280_temperature;BME280_humidity;BME280_pressure;Samples;Min_cycle;Max_cycle;Signal;HPM_P1;HPM_P2
2023/06/19 00:01:11;;;;;;;8.10;7.50;;;;;;;23.93;48.55;100031.98;110046;1270;137720;-69
2023/06/19 00:03:38;;;;;;;7.60;6.90;;;;;;;23.94;48.55;100024.39;110357;1273;22155;-67
2023/06/19 00:06:06;;;;;;;8.70;7.90;;;;;;;23.94;48.64;100026.96;110152;1272;138346;-70
2023/06/19 00:08:34;;;;;;;10.80;7.40;;;;;;;23.94;48.84;100023.63;110185;1272;137926;-70
2023/06/19 00:11:02;;;;;;;8.30;7.70;;;;;;;23.93;48.98;100021.08;110275;1271;22845;-73
2023/06/19 00:13:29;;;;;;;7.90;7.30;;;;;;;23.91;49.04;100021.75;110194;1257;138743;-69
2023/06/19 00:16:00;;;;;;;8.20;7.40;;;;;;;23.89;49.23;100021.49;110239;1270;22129;-70
2023/06/19 00:18:28;;;;;;;7.70;7.00;;;;;;;23.88;49.33;100015.73;110216;1259;138359;-70
2023/06/19 00:20:56;;;;;;;7.90;7.30;;;;;;;23.83;49.58;100018.33;110221;1274;138321;-72
2023/06/19 00:23:23;;;;;;;8.10;7.60;;;;;;;23.76;50.05;100014.84;110331;1273;22343;-67
2023/06/19 00:25:50;;;;;;;7.90;7.20;;;;;;;23.69;50.34;100013.84;110151;1255;138490;-74
2023/06/19 00:28:19;;;;;;;8.40;7.60;;;;;;;23.58;50.64;100011.84;110354;1273;138670;-73
2023/06/19 00:30:47;;;;;;;8.30;7.70;;;;;;;23.58;50.66;100011.58;110294;1270;22355;-71
2023/06/19 00:33:14;;;;;;;8.70;8.00;;;;;;;23.61;50.66;100013.13;110201;1269;137645;-68
2023/06/19 00:35:42;;;;;;;10.10;9.10;;;;;;;23.64;50.63;100021.16;110458;1273;22232;-74
2023/06/19 00:38:10;;;;;;;8.70;8.20;;;;;;;23.62;51.40;100023.90;109978;1274;138861;-68
2023/06/19 00:40:37;;;;;;;10.50;7.90;;;;;;;23.60;51.76;100023.04;110178;1270;138982;-68
2023/06/19 00:43:06;;;;;;;8.20;7.60;;;;;;;23.52;52.23;100014.71;110356;1270;23125;-71
2023/06/19 00:45:33;;;;;;;8.30;7.60;;;;;;;23.46;52.34;100012.80;110162;1255;138973;-68
2023/06/19 00:48:01;;;;;;;8.50;7.70;;;;;;;23.29;52.91;100012.63;110108;1277;22341;-68
2023/06/19 00:50:30;;;;;;;9.10;8.20;;;;;;;23.23;53.49;100015.11;110466;1270;22318;-69
2023/06/19 00:52:59;;;;;;;9.00;8.30;;;;;;;23.30;53.85;100014.52;110218;1276;138037;-68
2023/06/19 00:55:32;;;;;;;10.60;8.80;;;;;;;23.31;54.08;100016.21;110316;1271;23390;-68
2023/06/19 00:58:00;;;;;;;8.40;7.60;;;;;;;23.27;54.13;100014.05;110152;1271;139938;-70
2023/06/19 01:00:28;;;;;;;8.00;7.30;;;;;;;23.17;54.59;100014.00;110087;1270;140657;-68
2023/06/19 01:02:57;;;;;;;9.10;8.30;;;;;;;23.16;54.67;100014.44;110242;1269;22312;-68
2023/06/19 01:05:25;;;;;;;8.70;8.00;;;;;;;23.16;54.77;100018.63;110193;1269;138970;-68
2023/06/19 01:08:29;;;;;;;8.60;8.00;;;;;;;23.12;55.02;100019.73;110375;1273;22216;-69
2023/06/19 01:11:01;;;;;;;9.60;8.60;;;;;;;23.07;55.58;100027.04;110339;1276;22217;-68
2023/06/19 01:13:43;;;;;;;9.00;8.20;;;;;;;22.87;56.35;100027.96;110227;1273;137684;-69
2023/06/19 01:16:11;;;;;;;9.30;8.40;;;;;;;22.77;56.85;100024.52;110274;1275;139616;-69
2023/06/19 01:18:39;;;;;;;8.40;7.60;;;;;;;22.80;56.82;100029.24;110367;1268;22385;-69
2023/06/19 01:21:15;;;;;;;9.40;8.30;;;;;;;22.78;56.99;100031.65;110132;1274;138496;-70
2023/06/19 01:23:43;;;;;;;9.30;8.50;;;;;;;22.74;57.27;100034.86;110334;1272;22831;-69
2023/06/19 01:26:11;;;;;;;8.70;8.00;;;;;;;22.65;57.73;100042.51;110227;1269;138610;-65
2023/06/19 01:28:44;;;;;;;9.70;8.80;;;;;;;22.72;57.64;100040.09;110203;1274;139248;-69
2023/06/19 01:31:24;;;;;;;9.40;8.70;;;;;;;22.75;57.68;100038.17;110281;1265;22320;-68
2023/06/19 01:33:53;;;;;;;10.30;9.00;;;;;;;22.74;57.70;100036.00;110220;1276;138562;-70
2023/06/19 01:36:21;;;;;;;9.70;8.90;;;;;;;22.73;57.80;100036.66;110164;1273;138952;-66
2023/06/19 01:38:54;;;;;;;9.70;8.70;;;;;;;22.71;57.97;100032.80;110323;1271;22383;-70
2023/06/19 01:41:24;;;;;;;10.60;7.90;;;;;;;22.67;58.39;100034.77;110133;1276;139071;-64
2023/06/19 01:43:53;;;;;;;8.00;7.50;;;;;;;22.52;58.75;100036.61;110273;1276;22155;-69
2023/06/19 01:46:20;;;;;;;9.40;8.60;;;;;;;22.37;59.17;100039.29;110154;1276;138754;-67
2023/06/19 01:48:47;;;;;;;9.90;8.80;;;;;;;22.38;59.11;100039.73;110218;1272;140241;-69
2023/06/19 01:51:15;;;;;;;9.40;8.60;;;;;;;22.42;58.84;100043.54;110308;1270;22166;-68
2023/06/19 01:53:43;;;;;;;8.70;8.00;;;;;;;22.41;58.86;100043.69;110198;1275;139653;-67
2023/06/19 01:56:11;;;;;;;8.80;8.10;;;;;;;22.43;58.46;100043.90;110213;1276;138204;-71
2023/06/19 01:58:38;;;;;;;9.40;8.50;;;;;;;22.46;58.44;100042.48;110266;1264;22369;-69
2023/06/19 02:01:06;;;;;;;9.30;8.50;;;;;;;22.46;58.50;100044.49;110210;1271;137611;-68
2023/06/19 02:03:33;;;;;;;9.40;8.40;;;;;;;22.42;58.30;100045.33;110255;1276;22331;-68
2023/06/19 02:06:01;;;;;;;8.70;7.90;;;;;;;22.43;58.42;100047.00;110213;1270;138743;-69
2023/06/19 02:08:28;;;;;;;12.20;8.00;;;;;;;22.41;58.71;100043.91;110235;1270;139081;-69
2023/06/19 02:10:55;;;;;;;9.10;8.40;;;;;;;22.40;58.53;100043.15;110218;1274;22577;-68
2023/06/19 02:13:23;;;;;;;9.20;8.60;;;;;;;22.39;58.46;100043.42;110256;1270;137803;-66
2023/06/19 02:15:51;;;;;;;9.30;8.50;;;;;;;22.40;58.38;100047.88;110327;1270;22120;-65
2023/06/19 02:18:18;;;;;;;8.30;7.50;;;;;;;22.39;58.68;100046.63;110152;1271;138794;-67
2023/06/19 02:20:46;;;;;;;9.20;8.40;;;;;;;22.44;58.47;100046.56;110201;1269;139960;-68
2023/06/19 02:23:15;;;;;;;9.40;8.60;;;;;;;22.55;58.07;100048.77;110244;1277;22134;-66
2023/06/19 02:25:42;;;;;;;8.60;7.80;;;;;;;22.60;57.77;100046.80;110222;1270;139157;-66
2023/06/19 02:28:09;;;;;;;9.50;8.60;;;;;;;22.58;57.91;100051.63;110208;1271;139770;-70
2023/06/19 02:30:37;;;;;;;10.10;9.20;;;;;;;22.55;57.92;100053.06;110283;1258;22350;-68
2023/06/19 02:33:04;;;;;;;8.80;7.90;;;;;;;22.53;57.84;100050.34;110141;1277;138892;-70
2023/06/19 02:35:32;;;;;;;9.00;8.20;;;;;;;22.46;58.13;100043.90;110386;1268;22309;-68
2023/06/19 02:37:59;;;;;;;13.30;10.20;;;;;;;22.46;58.09;100049.34;110250;1275;137995;-69
2023/06/19 02:40:26;;;;;;;9.70;8.80;;;;;;;22.37;58.12;100054.73;110221;1274;139915;-71
2023/06/19 02:42:54;;;;;;;8.60;7.90;;;;;;;22.38;58.19;100055.96;110291;1276;22987;-67
2023/06/19 02:45:21;;;;;;;10.30;8.70;;;;;;;22.41;58.30;100054.82;110078;1269;139063;-67
2023/06/19 02:47:50;;;;;;;9.70;8.80;;;;;;;22.44;58.13;100051.34;110298;1269;22848;-69
2023/06/19 02:50:18;;;;;;;11.50;8.70;;;;;;;22.41;58.31;100053.73;110316;1269;137784;-69
2023/06/19 02:52:45;;;;;;;9.50;8.60;;;;;;;22.42;58.21;100059.05;110286;1270;138646;-69
2023/06/19 02:55:13;;;;;;;8.50;7.80;;;;;;;22.45;58.14;100056.07;110378;1268;22198;-68
2023/06/19 02:57:40;;;;;;;9.60;8.60;;;;;;;22.47;57.73;100056.71;110236;1270;138609;-68
2023/06/19 03:00:11;;;;;;;9.20;8.30;;;;;;;22.50;57.63;100056.54;110205;1269;139248;-69
2023/06/19 03:02:43;;;;;;;15.30;8.80;;;;;;;22.51;57.54;100057.58;110179;1272;22416;-69
2023/06/19 03:05:14;;;;;;;8.70;7.90;;;;;;;22.56;57.33;100054.41;110196;1269;137839;-70
2023/06/19 03:07:43;;;;;;;8.80;8.10;;;;;;;22.59;57.20;100051.15;110358;1269;22248;-68
2023/06/19 03:10:10;;;;;;;8.90;8.10;;;;;;;22.55;57.15;100050.24;110124;1271;138800;-67
2023/06/19 03:12:37;;;;;;;9.10;8.30;;;;;;;22.48;57.44;100052.04;110170;1271;137943;-67
2023/06/19 03:15:05;;;;;;;9.60;8.70;;;;;;;22.50;57.51;100055.84;110402;1269;22227;-68
2023/06/19 03:17:33;;;;;;;9.10;8.20;;;;;;;22.50;57.25;100052.96;110099;1269;140201;-69
2023/06/19 03:20:01;;;;;;;8.80;7.80;;;;;;;22.49;57.34;100054.65;110237;1270;22402;-68
2023/06/19 03:22:29;;;;;;;8.10;7.50;;;;;;;22.49;57.47;100055.02;110407;1269;22348;-69
2023/06/19 03:24:57;;;;;;;9.30;8.10;;;;;;;22.54;57.39;100056.33;110158;1276;137654;-68
2023/06/19 03:27:26;;;;;;;8.90;7.40;;;;;;;22.61;57.19;100058.53;110398;1276;22206;-68
2023/06/19 03:29:53;;;;;;;9.90;8.20;;;;;;;22.54;57.54;100058.23;110117;1271;137678;-69
2023/06/19 03:32:26;;;;;;;8.80;8.00;;;;;;;22.54;57.62;100058.77;110237;1275;138269;-69
2023/06/19 03:34:55;;;;;;;8.80;8.10;;;;;;;22.54;57.82;100057.09;110216;1271;22238;-68
2023/06/19 03:37:23;;;;;;;9.00;8.10;;;;;;;22.58;57.77;100053.11;110075;1269;138787;-68
2023/06/19 03:39:50;;;;;;;8.70;7.90;;;;;;;22.51;58.18;100051.05;110393;1276;22144;-70
2023/06/19 03:42:17;;;;;;;9.00;8.20;;;;;;;22.49;58.50;100055.02;110275;1256;139057;-68
2023/06/19 03:44:45;;;;;;;9.60;8.50;;;;;;;22.52;58.59;100052.30;110051;1267;138368;-70
2023/06/19 03:47:12;;;;;;;10.50;8.00;;;;;;;22.51;58.89;100051.71;110303;1277;22109;-69
2023/06/19 03:49:39;;;;;;;8.80;7.80;;;;;;;22.49;59.13;100052.04;110068;1271;138419;-71
2023/06/19 03:52:07;;;;;;;9.00;8.10;;;;;;;22.51;59.32;100049.96;110218;1269;139485;-69
2023/06/19 03:54:34;;;;;;;9.30;8.00;;;;;;;22.52;59.40;100051.43;110158;1268;22129;-66
2023/06/19 03:57:02;;;;;;;9.10;8.10;;;;;;;22.54;59.62;100053.50;110155;1270;139198;-70
2023/06/19 03:59:30;;;;;;;9.70;7.70;;;;;;;22.55;59.76;100051.10;110256;1274;22270;-69
2023/06/19 04:01:58;;;;;;;8.30;7.30;;;;;;;22.60;59.67;100053.21;110072;1267;139035;-67
2023/06/19 04:04:25;;;;;;;8.00;6.70;;;;;;;22.62;59.89;100051.73;110324;1269;139461;-68
2023/06/19 04:06:55;;;;;;;11.80;8.30;;;;;;;22.62;60.15;100049.29;110186;1269;22912;-71
2023/06/19 04:09:22;;;;;;;8.70;7.90;;;;;;;22.67;60.14;100049.44;110271;1268;138269;-69
2023/06/19 04:11:50;;;;;;;8.00;7.10;;;;;;;22.69;60.17;100046.83;110398;1267;22178;-70
2023/06/19 04:14:17;;;;;;;11.00;8.30;;;;;;;22.83;59.78;100052.22;110344;1267;137818;-69
2023/06/19 04:16:44;;;;;;;9.20;8.10;;;;;;;23.06;58.96;100051.72;110183;1269;138526;-68
2023/06/19 04:19:12;;;;;;;9.40;8.40;;;;;;;23.12;58.85;100052.69;110314;1269;22897;-68
2023/06/19 04:21:39;;;;;;;8.70;7.90;;;;;;;23.18;58.69;100050.76;110116;1269;137636;-70
2023/06/19 04:24:08;;;;;;;9.60;8.50;;;;;;;23.16;58.63;100049.79;110182;1269;139226;-69
2023/06/19 04:26:36;;;;;;;8.70;7.90;;;;;;;23.00;59.14;100050.64;110287;1269;22418;-69
2023/06/19 04:29:06;;;;;;;8.20;7.60;;;;;;;23.01;59.21;100052.26;110047;1264;138639;-70
2023/06/19 04:31:40;;;;;;;8.50;7.60;;;;;;;23.07;59.08;100054.38;110111;1267;22124;-70
2023/06/19 04:34:09;;;;;;;10.80;8.20;;;;;;;23.19;58.69;100048.90;110215;1267;137876;-70
2023/06/19 04:36:37;;;;;;;8.70;7.90;;;;;;;23.27;58.09;100048.80;110127;1267;139694;-69
2023/06/19 04:39:04;;;;;;;11.80;8.10;;;;;;;23.32;57.83;100046.83;110270;1270;22311;-70
2023/06/19 04:41:31;;;;;;;11.90;8.00;;;;;;;23.42;57.87;100046.88;110245;1256;139164;-69
2023/06/19 04:44:02;;;;;;;10.10;8.80;;;;;;;23.51;57.46;100049.76;110308;1267;22346;-68
2023/06/19 04:46:29;;;;;;;10.70;8.00;;;;;;;23.60;56.81;100052.09;110297;1268;22402;-68
2023/06/19 04:48:56;;;;;;;8.30;7.50;;;;;;;23.75;55.99;100052.59;110277;1267;138465;-70
2023/06/19 04:51:24;;;;;;;8.50;7.70;;;;;;;23.84;54.97;100053.05;110270;1271;22322;-68
2023/06/19 04:53:51;;;;;;;10.40;7.70;;;;;;;23.85;54.93;100053.36;110267;1268;138771;-66
2023/06/19 04:56:18;;;;;;;8.80;8.00;;;;;;;23.89;54.50;100055.08;110263;1269;139250;-67
2023/06/19 04:58:46;;;;;;;9.30;8.20;;;;;;;23.97;54.31;100056.92;110316;1270;22336;-68
2023/06/19 05:01:15;;;;;;;9.10;8.20;;;;;;;24.07;54.45;100060.49;110331;1268;138493;-69
2023/06/19 05:03:47;;;;;;;8.40;7.70;;;;;;;24.23;53.87;100060.90;110321;1257;22343;-71
2023/06/19 05:06:14;;;;;;;8.40;7.20;;;;;;;24.42;52.98;100065.35;110330;1267;138305;-69
2023/06/19 05:08:41;;;;;;;7.90;7.20;;;;;;;24.58;52.67;100064.17;110266;1270;138683;-68
2023/06/19 05:11:09;;;;;;;10.10;8.30;;;;;;;24.74;52.28;100060.86;110412;1267;22324;-68
2023/06/19 05:13:36;;;;;;;7.80;7.00;;;;;;;24.95;51.43;100066.23;110323;1267;138231;-68
2023/06/19 05:18:17;;;;;;;9.30;7.30;;;;;;;25.14;50.01;100065.88;103375;1305;544802;-70
2023/06/19 15:05:50;;;;;;;6.80;4.90;;;;;;;28.71;27.58;99935.77;104372;1307;545817;-78
2023/06/19 15:08:21;;;;;;;4.70;4.30;;;;;;;28.70;27.45;99936.27;105813;1292;137304;-80
2023/06/19 15:10:49;;;;;;;4.20;3.80;;;;;;;28.71;27.24;99939.27;105532;1274;23162;-79
2023/06/19 15:13:17;;;;;;;4.00;3.70;;;;;;;28.73;27.37;99936.50;105849;1287;138585;-80
